Clines Corners, New Mexico
Current Conditions -  °F | °C
As of 3:53 AM on Friday 31 Oct 2014 (Local Time) from KCQC Reporting Station
Clear Clear  
Wind Chill: 28°   Ceiling: Unl
Heat Index: 36°   Visibility: 10mi
Dew Point: 22°   Wind: 10mph
Humidity: 57%   Direction: 100°E
Pressure: 30.44"   Gusts: NA
Location:  35.01°N, 105.67°W
Report Text: KCQC 310953Z AUTO 10009KT 10SM CLR 02/M06 A3044 RMK AO2 SLP257 T00221056 $
Loading
Personal Weather Stations






























Interactive Weather Map
Tropical Storm Tracking
New forecast layout! Learn more

10-Day Weather Forecast

Advertisements
Track Severe Weather on mobile